createdAt,value
2022-11-08T00:01:59.807Z,10.10
2022-11-08T00:05:20.433Z,10.10
2022-11-08T00:08:40.625Z,10.00
2022-11-08T00:12:01.210Z,10.00
2022-11-08T00:15:03.965Z,9.90
2022-11-08T00:18:07.365Z,9.80
2022-11-08T00:21:09.002Z,9.80
2022-11-08T00:24:10.775Z,9.70
2022-11-08T00:27:15.271Z,9.60
2022-11-08T00:30:16.997Z,9.60
2022-11-08T00:33:18.615Z,9.50
2022-11-08T00:36:20.190Z,9.60
2022-11-08T00:39:21.939Z,9.50
2022-11-08T00:42:23.656Z,9.50
2022-11-08T00:45:25.335Z,9.50
2022-11-08T00:48:27.116Z,9.50
2022-11-08T00:51:29.052Z,9.50
2022-11-08T00:54:30.813Z,9.50
2022-11-08T00:57:53.931Z,9.40
2022-11-08T01:00:56.865Z,9.40
2022-11-08T01:03:58.752Z,9.40
2022-11-08T01:07:00.414Z,9.40
2022-11-08T01:10:02.195Z,9.40
2022-11-08T01:13:04.730Z,9.40
2022-11-08T01:16:09.106Z,9.30
2022-11-08T01:19:11.091Z,9.30
2022-11-08T01:22:12.774Z,9.30
2022-11-08T01:25:14.525Z,9.30
2022-11-08T01:28:17.200Z,9.30
2022-11-08T01:31:24.951Z,9.30
2022-11-08T01:34:26.610Z,9.30
2022-11-08T01:37:28.328Z,9.30
2022-11-08T01:40:30.437Z,9.20
2022-11-08T01:43:41.149Z,9.20
2022-11-08T01:46:46.021Z,9.20
2022-11-08T01:49:47.989Z,9.10
2022-11-08T01:52:54.734Z,9.10
2022-11-08T01:55:57.010Z,9.10
2022-11-08T01:59:00.594Z,9.10
2022-11-08T02:02:02.552Z,9.10
2022-11-08T02:05:07.902Z,9.00
2022-11-08T02:08:20.240Z,9.00
2022-11-08T02:11:22.213Z,8.90
2022-11-08T02:14:23.885Z,8.80
2022-11-08T02:17:25.508Z,8.80
2022-11-08T02:20:27.245Z,8.70
2022-11-08T02:23:58.443Z,8.50
2022-11-08T02:27:01.412Z,8.50
2022-11-08T02:30:03.230Z,8.40
2022-11-08T02:33:23.620Z,8.30
2022-11-08T02:36:25.549Z,8.20
2022-11-08T02:39:28.689Z,8.10
2022-11-08T02:42:30.342Z,8.00
2022-11-08T02:45:32.347Z,7.90
2022-11-08T02:48:33.950Z,7.80
2022-11-08T02:51:35.555Z,7.70
2022-11-08T02:54:37.263Z,7.70
2022-11-08T02:57:38.849Z,7.60
2022-11-08T03:00:40.740Z,7.50
2022-11-08T03:03:42.286Z,7.50
2022-11-08T03:06:43.995Z,7.40
2022-11-08T03:09:45.638Z,7.40
2022-11-08T03:12:47.327Z,7.30
2022-11-08T03:15:48.988Z,7.30
2022-11-08T03:18:50.713Z,7.30
2022-11-08T03:21:52.359Z,7.20
2022-11-08T03:24:54.065Z,7.20
2022-11-08T03:27:55.706Z,7.20
2022-11-08T03:30:57.427Z,7.20
2022-11-08T03:33:59.035Z,7.10
2022-11-08T03:37:00.768Z,7.10
2022-11-08T03:40:02.366Z,7.10
2022-11-08T03:43:04.103Z,7.00
2022-11-08T03:46:05.734Z,7.00
2022-11-08T03:49:07.411Z,7.00
2022-11-08T03:52:09.265Z,6.90
2022-11-08T03:55:12.000Z,6.80
2022-11-08T03:58:13.653Z,6.90
2022-11-08T04:01:15.384Z,6.90
2022-11-08T04:04:17.119Z,6.90
2022-11-08T04:07:18.734Z,6.90
2022-11-08T04:10:20.357Z,6.80
2022-11-08T04:13:41.106Z,6.80
2022-11-08T04:16:42.774Z,6.70
2022-11-08T04:20:03.885Z,6.70
2022-11-08T04:23:05.503Z,6.70
2022-11-08T04:26:08.677Z,6.60
2022-11-08T04:29:10.610Z,6.50
2022-11-08T04:32:12.235Z,6.50
2022-11-08T04:35:13.899Z,6.50
2022-11-08T04:38:16.337Z,6.50
2022-11-08T04:41:20.797Z,6.50
2022-11-08T04:44:22.372Z,6.40
2022-11-08T04:47:24.006Z,6.40
2022-11-08T04:50:25.626Z,6.40
2022-11-08T04:53:27.201Z,6.40
2022-11-08T04:56:30.742Z,6.30
2022-11-08T04:59:32.387Z,6.30
2022-11-08T05:02:34.047Z,6.20
2022-11-08T05:05:35.752Z,6.10
2022-11-08T05:08:37.722Z,6.00
2022-11-08T05:11:39.344Z,5.90
2022-11-08T05:14:41.003Z,5.80
2022-11-08T05:17:42.730Z,5.80
2022-11-08T05:21:02.939Z,5.80
2022-11-08T05:24:06.402Z,5.80
2022-11-08T05:27:09.123Z,5.70
2022-11-08T05:30:11.092Z,5.80
2022-11-08T05:33:13.656Z,5.80
2022-11-08T05:36:16.630Z,5.80
2022-11-08T05:39:18.326Z,5.80
2022-11-08T05:42:20.962Z,5.80
2022-11-08T05:45:22.657Z,5.70
2022-11-08T05:48:24.470Z,5.70
2022-11-08T05:51:26.257Z,5.70
2022-11-08T05:54:27.884Z,5.60
2022-11-08T05:57:29.681Z,5.60
2022-11-08T06:00:31.330Z,5.60
2022-11-08T06:03:33.625Z,5.60
2022-11-08T06:06:35.266Z,5.50
2022-11-08T06:09:36.928Z,5.50
2022-11-08T06:12:38.735Z,5.50
2022-11-08T06:15:40.337Z,5.60
2022-11-08T06:18:42.205Z,5.60
2022-11-08T06:21:44.858Z,5.60
2022-11-08T06:24:46.523Z,5.60
2022-11-08T06:27:48.359Z,5.60
2022-11-08T06:30:50.047Z,5.60
2022-11-08T06:33:51.754Z,5.60
2022-11-08T06:36:54.950Z,5.70
2022-11-08T06:39:56.753Z,5.70
2022-11-08T06:42:59.500Z,5.80
2022-11-08T06:46:02.281Z,5.80
2022-11-08T06:49:03.977Z,5.90
2022-11-08T06:52:05.702Z,5.80
2022-11-08T06:55:07.649Z,5.90
2022-11-08T06:58:10.752Z,5.90
2022-11-08T07:01:16.161Z,6.00
2022-11-08T07:04:17.890Z,6.10
2022-11-08T07:07:19.672Z,6.20
2022-11-08T07:10:27.181Z,6.20
2022-11-08T07:13:28.909Z,6.30
2022-11-08T07:16:30.528Z,6.40
2022-11-08T07:19:32.131Z,6.50
2022-11-08T07:22:33.802Z,6.50
2022-11-08T07:25:35.882Z,6.60
2022-11-08T07:28:37.522Z,6.70
2022-11-08T07:31:39.122Z,6.80
2022-11-08T07:34:40.762Z,6.80
2022-11-08T07:37:42.621Z,6.90
2022-11-08T07:40:44.837Z,7.00
2022-11-08T07:43:46.437Z,7.00
2022-11-08T07:46:48.110Z,7.20
2022-11-08T07:49:50.122Z,7.30
2022-11-08T07:52:51.895Z,7.40
2022-11-08T07:55:55.078Z,7.60
2022-11-08T07:58:56.800Z,7.80
2022-11-08T08:01:58.421Z,7.80
2022-11-08T08:05:00.069Z,7.90
2022-11-08T08:08:02.396Z,7.90
2022-11-08T08:11:04.996Z,7.90
2022-11-08T08:14:06.679Z,8.00
2022-11-08T08:17:08.360Z,8.10
2022-11-08T08:20:10.782Z,8.10
2022-11-08T08:23:12.694Z,7.90
2022-11-08T08:26:14.468Z,7.80
2022-11-08T08:29:16.145Z,7.80
2022-11-08T08:32:17.905Z,7.80
2022-11-08T08:35:19.575Z,7.90
2022-11-08T08:38:21.630Z,8.00
2022-11-08T08:41:23.279Z,8.10
2022-11-08T08:44:25.008Z,8.20
2022-11-08T08:47:27.287Z,8.30
2022-11-08T08:50:30.446Z,8.50
2022-11-08T08:53:32.093Z,8.60
2022-11-08T08:56:33.755Z,8.80
2022-11-08T09:03:02.889Z,9.00
2022-11-08T09:06:05.141Z,9.10
2022-11-08T09:09:07.502Z,9.30
2022-11-08T09:12:11.839Z,9.40
2022-11-08T09:15:16.995Z,9.50
2022-11-08T09:18:19.743Z,9.60
2022-11-08T09:21:21.506Z,9.60
2022-11-08T09:24:23.236Z,9.70
2022-11-08T09:27:25.030Z,9.80
2022-11-08T09:30:26.941Z,9.90
2022-11-08T09:33:29.050Z,9.90
2022-11-08T09:36:30.902Z,10.00
2022-11-08T09:39:32.694Z,10.10
2022-11-08T09:42:52.114Z,10.30
2022-11-08T09:45:56.111Z,10.50
2022-11-08T09:49:02.858Z,10.70
2022-11-08T09:52:05.276Z,10.90
2022-11-08T09:55:36.088Z,11.20
2022-11-08T09:59:18.762Z,11.40
2022-11-08T10:03:16.016Z,11.60
2022-11-08T10:07:03.410Z,11.80
2022-11-08T10:10:12.378Z,11.70
2022-11-08T10:13:30.296Z,11.80
2022-11-08T10:16:51.017Z,11.80
2022-11-08T10:20:22.480Z,11.80
2022-11-08T10:23:38.201Z,11.80
2022-11-08T10:26:51.807Z,11.90
2022-11-08T10:30:01.564Z,12.10
2022-11-08T10:33:47.582Z,12.30
2022-11-08T10:36:53.472Z,12.50
2022-11-08T10:40:04.066Z,12.80
2022-11-08T10:43:22.850Z,13.10
2022-11-08T10:46:27.741Z,13.30
2022-11-08T10:49:47.329Z,13.50
2022-11-08T10:52:59.926Z,13.70
2022-11-08T10:56:06.043Z,13.90
2022-11-08T10:59:31.090Z,14.00
2022-11-08T11:02:46.211Z,14.10
2022-11-08T11:06:07.091Z,14.30
2022-11-08T11:09:35.690Z,14.50
2022-11-08T11:12:37.818Z,14.80
2022-11-08T11:15:50.855Z,15.10
2022-11-08T11:19:03.352Z,15.30
2022-11-08T11:22:19.939Z,15.50
2022-11-08T11:25:33.215Z,15.70
2022-11-08T11:29:17.851Z,15.90
2022-11-08T11:32:24.160Z,15.90
2022-11-08T11:35:37.569Z,15.90
2022-11-08T11:39:00.689Z,15.90
2022-11-08T11:42:45.873Z,15.80
2022-11-08T11:46:15.553Z,15.80
2022-11-08T11:49:29.580Z,15.90
2022-11-08T11:52:31.815Z,15.90
2022-11-08T11:55:39.403Z,15.90
2022-11-08T11:59:00.778Z,16.00
2022-11-08T12:02:21.527Z,16.10
2022-11-08T12:05:41.187Z,16.10
2022-11-08T12:09:06.583Z,16.00
2022-11-08T12:12:43.871Z,16.00
2022-11-08T12:15:55.479Z,16.10
2022-11-08T12:19:23.643Z,16.00
2022-11-08T12:22:58.481Z,16.00
2022-11-08T12:26:15.087Z,16.00
2022-11-08T12:30:13.683Z,16.00
2022-11-08T12:33:37.768Z,15.90
2022-11-08T12:37:05.571Z,15.80
2022-11-08T12:40:16.087Z,15.80
2022-11-08T12:43:41.694Z,15.70
2022-11-08T12:47:15.383Z,15.70
2022-11-08T12:50:36.087Z,15.80
2022-11-08T12:54:20.722Z,15.80
2022-11-08T12:57:32.103Z,15.90
2022-11-08T13:00:37.518Z,16.10
2022-11-08T13:03:51.364Z,16.10
2022-11-08T13:07:17.984Z,16.20
2022-11-08T13:10:52.006Z,16.20
2022-11-08T13:14:01.554Z,16.10
2022-11-08T13:17:13.666Z,16.10
2022-11-08T13:20:38.753Z,16.10
2022-11-08T13:23:40.583Z,15.90
2022-11-08T13:26:47.090Z,15.70
2022-11-08T13:29:56.507Z,15.60
2022-11-08T13:32:58.180Z,15.40
2022-11-08T13:36:37.590Z,15.40
2022-11-08T13:43:33.539Z,15.40
2022-11-08T13:46:44.516Z,15.50
2022-11-08T13:49:46.171Z,15.50
2022-11-08T13:53:17.143Z,15.60
2022-11-08T13:56:24.512Z,15.60
2022-11-08T13:59:32.940Z,15.60
2022-11-08T14:02:34.987Z,15.40
2022-11-08T14:05:46.497Z,15.40
2022-11-08T14:08:48.218Z,15.30
2022-11-08T14:11:56.294Z,15.30
2022-11-08T14:15:14.699Z,15.30
2022-11-08T14:18:39.027Z,15.40
2022-11-08T14:21:50.532Z,15.30
2022-11-08T14:24:55.221Z,15.30
2022-11-08T14:27:57.938Z,15.30
2022-11-08T14:31:01.736Z,15.30
2022-11-08T14:34:03.505Z,15.30
2022-11-08T14:37:15.763Z,15.30
2022-11-08T14:40:26.567Z,15.20
2022-11-08T14:43:29.519Z,15.20
2022-11-08T14:46:40.103Z,15.20
2022-11-08T14:49:41.822Z,15.10
2022-11-08T14:52:43.791Z,15.00
2022-11-08T14:55:45.621Z,15.00
2022-11-08T14:58:49.320Z,14.90
2022-11-08T15:01:51.479Z,14.90
2022-11-08T15:04:53.687Z,14.80
2022-11-08T15:08:00.168Z,14.70
2022-11-08T15:11:28.121Z,14.60
2022-11-08T15:14:33.620Z,14.50
2022-11-08T15:17:38.967Z,14.40
2022-11-08T15:20:53.706Z,14.40
2022-11-08T15:24:12.553Z,14.40
2022-11-08T15:27:17.247Z,14.30
2022-11-08T15:30:40.803Z,14.20
2022-11-08T15:33:44.134Z,14.10
2022-11-08T15:36:46.540Z,14.00
2022-11-08T15:39:48.707Z,14.00
2022-11-08T15:42:52.018Z,13.90
2022-11-08T15:45:56.321Z,13.80
2022-11-08T15:48:59.183Z,13.70
2022-11-08T15:52:04.213Z,13.70
2022-11-08T15:55:14.411Z,13.60
2022-11-08T15:58:34.845Z,13.50
2022-11-08T16:01:42.173Z,13.50
2022-11-08T16:04:44.510Z,13.40
2022-11-08T16:07:46.355Z,13.40
2022-11-08T16:10:57.947Z,13.40
2022-11-08T16:13:59.860Z,13.40
2022-11-08T16:17:01.667Z,13.40
2022-11-08T16:20:17.329Z,13.40
2022-11-08T16:23:19.089Z,13.40
2022-11-08T16:26:20.890Z,13.40
2022-11-08T16:29:24.059Z,13.40
2022-11-08T16:32:25.992Z,13.40
2022-11-08T16:35:27.659Z,13.40
2022-11-08T16:38:35.134Z,13.40
2022-11-08T16:41:42.483Z,13.40
2022-11-08T16:44:44.509Z,13.40
2022-11-08T16:47:49.632Z,13.40
2022-11-08T16:50:57.790Z,13.40
2022-11-08T16:54:03.082Z,13.40
2022-11-08T16:57:28.585Z,13.40
2022-11-08T17:00:26.641Z,13.40
2022-11-08T17:03:29.681Z,13.50
2022-11-08T17:06:31.487Z,13.50
2022-11-08T17:09:33.127Z,13.60
2022-11-08T17:12:34.814Z,13.70
2022-11-08T17:15:36.523Z,13.70
2022-11-08T17:18:38.691Z,13.80
2022-11-08T17:21:45.040Z,13.80
2022-11-08T17:24:47.295Z,13.80
2022-11-08T17:27:52.995Z,13.90
2022-11-08T17:30:54.685Z,13.90
2022-11-08T17:33:56.297Z,13.90
2022-11-08T17:36:57.956Z,13.90
2022-11-08T17:39:59.907Z,13.90
2022-11-08T17:43:03.831Z,13.90
2022-11-08T17:46:06.025Z,14.00
2022-11-08T17:49:09.244Z,14.00
2022-11-08T17:52:11.699Z,14.00
2022-11-08T17:55:13.372Z,14.00
2022-11-08T17:58:18.152Z,14.00
2022-11-08T18:01:19.916Z,14.00
2022-11-08T18:04:21.734Z,13.90
2022-11-08T18:07:24.519Z,13.90
2022-11-08T18:10:26.522Z,13.90
2022-11-08T18:13:28.927Z,13.80
2022-11-08T18:16:30.692Z,13.80
2022-11-08T18:19:32.326Z,13.80
2022-11-08T18:22:33.971Z,13.70
2022-11-08T18:25:35.847Z,13.70
2022-11-08T18:28:38.894Z,13.70
2022-11-08T18:31:40.574Z,13.60
2022-11-08T18:34:42.223Z,13.50
2022-11-08T18:37:43.932Z,13.50
2022-11-08T18:40:49.018Z,13.40
2022-11-08T18:43:51.118Z,13.40
2022-11-08T18:46:52.774Z,13.40
2022-11-08T18:49:59.121Z,13.30
2022-11-08T18:53:04.007Z,13.40
2022-11-08T18:56:06.818Z,13.30
2022-11-08T18:59:09.047Z,13.30
2022-11-08T19:02:12.297Z,13.30
2022-11-08T19:05:13.982Z,13.30
2022-11-08T19:08:17.375Z,13.20
2022-11-08T19:11:22.866Z,13.20
2022-11-08T19:14:24.642Z,13.20
2022-11-08T19:17:26.295Z,13.20
2022-11-08T19:20:27.944Z,13.20
2022-11-08T19:23:29.720Z,13.20
2022-11-08T19:26:31.353Z,13.10
2022-11-08T19:29:32.960Z,13.20
2022-11-08T19:32:34.677Z,13.20
2022-11-08T19:35:37.494Z,13.10
2022-11-08T19:38:40.330Z,13.10
2022-11-08T19:41:42.079Z,13.10
2022-11-08T19:44:43.695Z,13.10
2022-11-08T19:47:47.340Z,13.10
2022-11-08T19:50:50.643Z,13.10
2022-11-08T19:53:58.679Z,13.10
2022-11-08T19:57:05.039Z,13.10
2022-11-08T20:00:10.208Z,13.10
2022-11-08T20:03:11.829Z,13.10
2022-11-08T20:06:15.088Z,13.10
2022-11-08T20:09:16.742Z,13.10
2022-11-08T20:12:18.358Z,13.10
2022-11-08T20:15:20.037Z,13.10
2022-11-08T20:18:21.745Z,13.10
2022-11-08T20:21:29.415Z,13.10
2022-11-08T20:24:31.127Z,13.10
2022-11-08T20:27:32.731Z,13.10
2022-11-08T20:30:35.251Z,13.00
2022-11-08T20:33:39.506Z,13.00
2022-11-08T20:36:43.918Z,13.00
2022-11-08T20:39:45.930Z,13.00
2022-11-08T20:42:47.631Z,13.00
2022-11-08T20:45:49.243Z,13.00
2022-11-08T20:48:51.181Z,13.00
2022-11-08T20:51:53.043Z,13.00
2022-11-08T20:54:54.810Z,13.00
2022-11-08T20:57:56.495Z,13.10
2022-11-08T21:00:59.755Z,13.10
2022-11-08T21:04:01.730Z,13.20
2022-11-08T21:10:42.104Z,13.20
2022-11-08T21:13:46.381Z,13.20
2022-11-08T21:17:19.701Z,13.20
2022-11-08T21:20:10.371Z,13.20
2022-11-08T21:23:11.982Z,13.10
2022-11-08T21:26:15.153Z,13.10
2022-11-08T21:29:16.723Z,13.10
2022-11-08T21:32:18.374Z,13.10
2022-11-08T21:35:19.999Z,13.10
2022-11-08T21:38:23.058Z,13.10
2022-11-08T21:41:24.679Z,13.10
2022-11-08T21:44:26.279Z,13.00
2022-11-08T21:47:27.899Z,13.00
2022-11-08T21:50:29.577Z,13.00
2022-11-08T21:53:31.215Z,12.90
2022-11-08T21:56:34.241Z,12.90
2022-11-08T21:59:35.898Z,12.90
2022-11-08T22:02:39.214Z,12.90
2022-11-08T22:05:41.097Z,12.90
2022-11-08T22:08:42.638Z,12.90
2022-11-08T22:11:44.270Z,12.80
2022-11-08T22:14:46.367Z,12.80
2022-11-08T22:18:14.427Z,12.80
2022-11-08T22:21:28.102Z,12.80
2022-11-08T22:24:29.731Z,12.70
2022-11-08T22:27:31.412Z,12.70
2022-11-08T22:30:33.220Z,12.70
2022-11-08T22:33:34.821Z,12.70
2022-11-08T22:36:44.024Z,12.70
2022-11-08T22:39:46.854Z,12.70
2022-11-08T22:42:48.451Z,12.70
2022-11-08T22:45:50.138Z,12.70
2022-11-08T22:48:52.001Z,12.70
2022-11-08T22:51:53.745Z,12.70
2022-11-08T22:54:56.961Z,12.80
2022-11-08T22:57:58.626Z,12.80
2022-11-08T23:01:00.253Z,12.80
2022-11-08T23:04:02.537Z,12.80
2022-11-08T23:07:04.258Z,12.80
2022-11-08T23:10:06.433Z,12.80
2022-11-08T23:13:27.199Z,12.90
2022-11-08T23:16:31.849Z,12.90
2022-11-08T23:19:59.703Z,12.90
2022-11-08T23:23:20.365Z,12.80
2022-11-08T23:26:40.961Z,12.90
2022-11-08T23:30:01.498Z,12.80
2022-11-08T23:33:04.257Z,12.90
2022-11-08T23:36:15.861Z,12.90
2022-11-08T23:39:17.722Z,12.90
2022-11-08T23:42:38.221Z,12.90
2022-11-08T23:45:39.839Z,12.90
2022-11-08T23:48:41.539Z,12.90
2022-11-08T23:51:43.346Z,12.90
2022-11-08T23:54:44.921Z,12.90
2022-11-08T23:57:47.865Z,12.90
